Time;durP1;ratioP1;P1;durP2;ratioP2;P2;SDS_P1;SDS_P2;PMS_P1;PMS_P2;Temp;Humidity;BMP_temperature;BMP_pressure;BME280_temperature;BME280_humidity;BME280_pressure;Samples;Min_cycle;Max_cycle;Signal;HPM_P1;HPM_P2
2022/08/05 14:03:12;;;;;;;6.45;1.35;;;26.30;88.60;;;;;;5081137;27;20134;-92
2022/08/05 14:07:14;;;;;;;6.43;1.35;;;26.50;89.60;;;;;;5110064;27;1351552;-94
2022/08/05 14:10:04;;;;;;;3.30;1.48;;;26.60;90.00;;;;;;5123571;27;20070;-91
2022/08/05 14:13:15;;;;;;;5.90;1.50;;;26.60;90.10;;;;;;5127083;27;20038;-91
2022/08/05 14:16:08;;;;;;;4.40;1.00;;;26.60;90.10;;;;;;5126988;28;20544;-93
2022/08/05 14:18:57;;;;;;;2.78;0.80;;;26.60;90.20;;;;;;5124489;27;20112;-92
2022/08/05 14:21:44;;;;;;;4.20;1.60;;;26.50;90.30;;;;;;5132818;27;20455;-93
2022/08/05 14:24:32;;;;;;;3.20;1.30;;;26.60;91.20;;;;;;5127844;28;20080;-94
2022/08/05 14:31:12;;;;;;;4.35;1.30;;;26.60;93.50;;;;;;5161532;27;20165;-88
2022/08/05 14:36:34;;;;;;;5.88;1.48;;;;;;;;;;4979261;27;3851908;-91
2022/08/05 14:39:18;;;;;;;5.13;1.58;;;;;;;;;;5105825;28;20116;-86
2022/08/05 14:42:07;;;;;;;6.43;1.23;;;26.80;92.70;;;;;;5084815;28;20030;-88
2022/08/05 14:46:03;;;;;;;4.78;1.55;;;26.80;92.40;;;;;;4998839;27;4955109;-89
2022/08/05 14:48:50;;;;;;;3.45;1.20;;;26.80;92.80;;;;;;5144192;27;20386;-88
2022/08/05 14:51:39;;;;;;;3.58;1.50;;;26.80;92.30;;;;;;5140996;27;20046;-89
2022/08/05 14:54:24;;;;;;;6.40;1.70;;;26.50;91.80;;;;;;5148414;27;20037;-89
2022/08/05 14:57:11;;;;;;;5.85;1.30;;;26.80;92.00;;;;;;5138492;27;20037;-90
2022/08/05 14:59:55;;;;;;;3.45;1.20;;;26.80;92.20;;;;;;5137138;27;20439;-89
2022/08/05 15:02:50;;;;;;;5.30;1.33;;;26.80;92.30;;;;;;5145516;27;20054;-89
2022/08/05 15:05:36;;;;;;;4.47;1.35;;;26.80;92.40;;;;;;5145751;27;20097;-90
2022/08/05 15:08:24;;;;;;;3.28;1.45;;;26.80;92.30;;;;;;5155208;27;20038;-89
2022/08/05 15:49:10;;;;;;;5.30;1.30;;;26.80;93.80;;;;;;5109625;27;20323;-65
2022/08/05 15:51:54;;;;;;;2.20;0.95;;;26.70;93.90;;;;;;5109881;28;20043;-64
2022/08/05 15:54:38;;;;;;;2.63;1.20;;;26.70;94.10;;;;;;5109892;28;20168;-64
2022/08/05 15:57:22;;;;;;;5.18;1.40;;;26.60;94.40;;;;;;5109485;28;20409;-62
2022/08/05 16:00:08;;;;;;;5.95;1.58;;;26.50;94.60;;;;;;5108684;28;20046;-61
2022/08/05 16:02:52;;;;;;;4.05;1.10;;;26.50;95.20;;;;;;5109954;28;20115;-62
2022/08/05 16:05:36;;;;;;;3.75;1.23;;;26.40;94.90;;;;;;5109843;28;20126;-62
2022/08/05 16:11:57;;;;;;;5.25;0.70;;;;;;;;;;5090361;27;20397;-85
2022/08/05 16:14:42;;;;;;;2.65;0.90;;;;;;;;;;5089105;28;20059;-82
2022/08/05 16:17:27;;;;;;;3.47;0.60;;;;;;;;;;5068933;28;20032;-85
2022/08/05 16:20:11;;;;;;;1.55;0.63;;;;;;;;;;5069305;28;20044;-85
2022/08/05 16:22:56;;;;;;;2.80;0.80;;;22.10;73.90;;;;;;5068603;28;20035;-87
2022/08/05 16:25:40;;;;;;;3.25;0.77;;;22.10;73.80;;;;;;5068932;28;20039;-85
2022/08/05 16:28:24;;;;;;;4.15;0.80;;;;;;;;;;5069673;28;20500;-86
2022/08/05 16:31:08;;;;;;;3.20;0.90;;;21.30;76.10;;;;;;5054803;28;20466;-87
2022/08/05 16:33:53;;;;;;;2.95;1.02;;;21.10;77.50;;;;;;5056227;28;20099;-84
2022/08/05 16:36:37;;;;;;;2.33;0.70;;;20.90;78.30;;;;;;5056522;28;20503;-84
2022/08/05 16:39:21;;;;;;;2.88;0.77;;;20.80;78.50;;;;;;5077920;28;20040;-85
2022/08/05 16:42:06;;;;;;;3.08;0.80;;;20.80;79.40;;;;;;5061009;28;20048;-86
2022/08/05 16:44:50;;;;;;;2.83;0.90;;;20.80;78.10;;;;;;5058076;28;20032;-87
2022/08/05 16:47:35;;;;;;;3.92;1.02;;;20.70;79.00;;;;;;5067022;28;20919;-87
2022/08/05 16:50:19;;;;;;;4.32;1.15;;;20.60;79.30;;;;;;5073798;28;20036;-87
2022/08/05 16:53:03;;;;;;;2.15;0.90;;;20.30;77.40;;;;;;5087750;28;20063;-87
2022/08/05 16:55:47;;;;;;;3.40;0.90;;;20.10;77.90;;;;;;5068301;28;20085;-86
2022/08/05 16:58:32;;;;;;;3.97;1.00;;;19.90;77.80;;;;;;5084989;28;20039;-86
2022/08/05 17:01:16;;;;;;;4.05;0.95;;;19.80;78.00;;;;;;5086748;28;20047;-87
2022/08/05 17:03:59;;;;;;;4.10;1.00;;;19.80;78.00;;;;;;5054474;28;20051;-86
2022/08/05 17:06:44;;;;;;;1.95;0.70;;;19.70;78.40;;;;;;5077448;28;20094;-87
2022/08/05 17:09:29;;;;;;;1.42;0.77;;;19.70;78.00;;;;;;5053143;28;20523;-86
2022/08/05 17:12:14;;;;;;;2.65;0.70;;;19.70;78.70;;;;;;5067903;28;20163;-85
2022/08/05 17:14:58;;;;;;;2.25;0.90;;;19.60;78.70;;;;;;5069075;28;20458;-85
2022/08/05 17:17:43;;;;;;;4.32;0.82;;;19.40;78.80;;;;;;5068090;28;20124;-86
2022/08/05 17:20:27;;;;;;;2.15;0.77;;;19.40;79.30;;;;;;5067252;28;20040;-85
2022/08/05 17:23:12;;;;;;;1.83;0.70;;;19.30;78.80;;;;;;5055193;28;20091;-86
2022/08/05 17:25:56;;;;;;;2.17;0.85;;;19.20;79.10;;;;;;5055261;28;20083;-85
2022/08/05 17:28:40;;;;;;;4.50;0.82;;;19.10;80.00;;;;;;5040542;28;20044;-83
2022/08/05 17:31:24;;;;;;;9.52;1.55;;;19.00;80.70;;;;;;5053906;28;20126;-86
2022/08/05 17:34:09;;;;;;;8.73;1.45;;;18.90;81.00;;;;;;5046437;28;20086;-86
2022/08/05 17:36:53;;;;;;;5.07;0.80;;;18.80;81.90;;;;;;5054070;28;20071;-85
2022/08/05 17:39:37;;;;;;;1.02;0.65;;;18.80;84.20;;;;;;5053655;28;20040;-85
2022/08/05 17:42:22;;;;;;;3.58;1.15;;;18.70;85.10;;;;;;5067854;28;20099;-82
2022/08/05 17:45:07;;;;;;;3.50;1.00;;;18.70;86.20;;;;;;5060059;28;20062;-87
2022/08/05 17:47:52;;;;;;;5.10;1.13;;;18.70;87.40;;;;;;5074448;28;20044;-84
2022/08/05 17:50:37;;;;;;;3.20;0.90;;;18.70;87.80;;;;;;5073984;28;20443;-90
2022/08/05 17:53:21;;;;;;;5.28;1.10;;;18.60;88.50;;;;;;5073227;28;20089;-85
2022/08/05 17:56:06;;;;;;;5.55;1.10;;;18.60;87.40;;;;;;5059329;28;20439;-83
2022/08/05 17:58:50;;;;;;;6.80;1.00;;;18.50;87.20;;;;;;5064183;28;20043;-83
2022/08/05 18:01:34;;;;;;;5.13;0.90;;;18.50;88.00;;;;;;5048833;28;20043;-85
2022/08/05 18:04:19;;;;;;;5.05;1.10;;;18.50;88.40;;;;;;5050256;28;20459;-85
2022/08/05 18:07:04;;;;;;;2.75;0.95;;;18.50;88.20;;;;;;5037794;28;20040;-85
2022/08/05 18:09:48;;;;;;;4.20;0.93;;;18.40;88.30;;;;;;5051523;28;20052;-83
2022/08/05 18:12:32;;;;;;;2.88;1.00;;;18.40;88.60;;;;;;5050883;28;20091;-85
2022/08/05 18:15:17;;;;;;;1.58;0.77;;;18.30;89.30;;;;;;5065170;28;20051;-85
2022/08/05 18:18:01;;;;;;;2.50;0.75;;;18.20;89.60;;;;;;5051278;28;20095;-85
2022/08/05 18:20:45;;;;;;;3.28;0.70;;;18.10;90.10;;;;;;5050940;28;20194;-85
2022/08/05 18:23:30;;;;;;;2.75;0.70;;;17.90;90.20;;;;;;5051997;28;20079;-89
2022/08/05 18:26:14;;;;;;;4.00;0.75;;;17.90;90.10;;;;;;5051139;28;20048;-85
2022/08/05 18:28:58;;;;;;;1.75;0.70;;;17.80;90.20;;;;;;5051575;28;20452;-88
2022/08/05 18:31:43;;;;;;;4.10;0.90;;;17.80;90.20;;;;;;5051131;28;20048;-84
2022/08/05 18:34:28;;;;;;;3.20;0.77;;;17.70;90.40;;;;;;5076338;28;20086;-84
2022/08/05 18:37:11;;;;;;;1.42;0.70;;;17.70;90.70;;;;;;5053916;28;20448;-84
2022/08/05 18:39:56;;;;;;;1.98;0.70;;;17.60;90.90;;;;;;5053660;28;20094;-83
2022/08/05 18:42:40;;;;;;;4.90;1.00;;;17.50;91.20;;;;;;5052085;28;20044;-84
2022/08/05 18:45:24;;;;;;;2.13;0.73;;;17.40;91.40;;;;;;5065932;28;20116;-84
2022/08/05 18:48:08;;;;;;;3.60;0.80;;;17.40;91.70;;;;;;5056337;28;20052;-84
2022/08/05 18:53:56;;;;;;;4.10;1.13;;;17.30;92.10;;;;;;5049087;28;20051;-84
2022/08/05 18:56:40;;;;;;;3.55;1.00;;;17.20;92.20;;;;;;5073164;28;20954;-84
2022/08/05 18:59:24;;;;;;;4.10;1.20;;;17.20;92.40;;;;;;5061280;28;20036;-83
2022/08/05 19:02:08;;;;;;;1.98;1.23;;;17.10;92.70;;;;;;5053452;28;20048;-87
2022/08/05 19:04:53;;;;;;;2.30;0.80;;;17.00;93.00;;;;;;5037913;28;20095;-84
2022/08/05 19:07:38;;;;;;;3.47;1.48;;;16.90;93.30;;;;;;5051943;28;20113;-89
2022/08/05 19:10:22;;;;;;;3.50;1.13;;;16.80;93.50;;;;;;5046403;28;20083;-83
2022/08/05 19:13:06;;;;;;;2.25;0.77;;;16.80;93.80;;;;;;5049162;28;20037;-84
2022/08/05 19:15:50;;;;;;;2.50;1.20;;;16.70;94.00;;;;;;5042225;28;20411;-84
2022/08/05 19:18:34;;;;;;;3.05;1.20;;;16.60;94.30;;;;;;5049910;28;20596;-85
2022/08/05 19:21:19;;;;;;;2.45;1.08;;;16.60;94.50;;;;;;5047397;28;20090;-84
2022/08/05 19:24:03;;;;;;;2.95;0.90;;;16.50;94.50;;;;;;5046694;28;20036;-85
2022/08/05 19:26:47;;;;;;;2.38;0.70;;;16.40;94.80;;;;;;5049181;28;20043;-84
2022/08/05 19:29:32;;;;;;;1.95;0.80;;;16.40;94.90;;;;;;5051082;28;20060;-84
2022/08/05 19:32:16;;;;;;;2.42;0.80;;;16.30;95.10;;;;;;5049311;28;20051;-84
2022/08/05 19:35:01;;;;;;;2.60;1.00;;;16.20;95.40;;;;;;5050339;28;20692;-87
2022/08/05 19:37:45;;;;;;;5.03;0.98;;;16.10;95.70;;;;;;5047090;28;20032;-84
2022/08/05 19:40:30;;;;;;;2.38;0.80;;;16.00;96.10;;;;;;5030275;28;20047;-85
2022/08/05 19:43:14;;;;;;;2.47;0.85;;;16.00;96.30;;;;;;5067963;28;20089;-84
2022/08/05 19:45:58;;;;;;;2.78;0.82;;;15.90;96.50;;;;;;5058157;28;20043;-84
2022/08/05 19:48:43;;;;;;;1.20;0.70;;;15.80;96.70;;;;;;5017691;28;20064;-89
2022/08/05 19:51:27;;;;;;;1.05;0.70;;;15.80;97.10;;;;;;5046803;28;20067;-84
2022/08/05 19:54:12;;;;;;;1.55;0.93;;;15.80;97.40;;;;;;5051088;28;20040;-87
2022/08/05 19:56:56;;;;;;;2.25;0.80;;;15.60;97.70;;;;;;5063480;28;20047;-84
2022/08/05 19:59:41;;;;;;;2.53;0.80;;;15.50;98.30;;;;;;5016480;28;20454;-85
2022/08/05 20:02:26;;;;;;;4.60;0.90;;;15.50;98.30;;;;;;5058289;28;20086;-84
2022/08/05 20:05:10;;;;;;;2.75;0.90;;;15.40;98.60;;;;;;5053937;28;20048;-84
2022/08/05 20:07:54;;;;;;;2.42;0.80;;;15.30;99.10;;;;;;5061448;28;20451;-84
2022/08/05 20:10:39;;;;;;;1.85;0.88;;;15.30;99.40;;;;;;5059294;28;20420;-84
2022/08/05 20:13:23;;;;;;;3.03;1.65;;;15.20;99.90;;;;;;5055435;28;20048;-87
2022/08/05 20:16:08;;;;;;;3.60;0.80;;;15.10;99.90;;;;;;5050074;28;20065;-84
2022/08/05 20:18:53;;;;;;;2.90;1.10;;;15.10;99.90;;;;;;5047655;28;20519;-84
2022/08/05 20:21:37;;;;;;;2.45;0.90;;;15.00;99.90;;;;;;5051152;28;20102;-84
2022/08/05 20:24:21;;;;;;;1.10;0.80;;;14.90;99.90;;;;;;5060329;28;20123;-83
2022/08/05 20:27:05;;;;;;;4.28;1.00;;;14.90;99.90;;;;;;5051787;28;20630;-84
2022/08/05 20:29:49;;;;;;;2.10;0.98;;;14.80;99.90;;;;;;5036455;28;20398;-89
2022/08/05 20:32:35;;;;;;;2.95;0.98;;;14.70;99.90;;;;;;5049235;28;20527;-84
2022/08/05 20:35:19;;;;;;;3.33;1.10;;;14.60;99.90;;;;;;5044598;28;20116;-84
2022/08/05 20:38:03;;;;;;;1.95;1.02;;;14.60;99.90;;;;;;5048451;28;20151;-84
2022/08/05 20:40:47;;;;;;;3.17;1.00;;;14.50;99.90;;;;;;5048005;28;20087;-83
2022/08/05 20:43:31;;;;;;;4.75;1.10;;;14.40;99.90;;;;;;5047891;28;20036;-84
2022/08/05 20:46:16;;;;;;;1.52;0.95;;;14.40;99.90;;;;;;5051052;28;20535;-84
2022/08/05 20:49:00;;;;;;;3.75;1.08;;;14.30;99.90;;;;;;5049885;28;20039;-84
2022/08/05 20:51:44;;;;;;;4.28;1.25;;;14.30;99.90;;;;;;5049336;28;20132;-83
2022/08/05 20:54:28;;;;;;;3.97;1.27;;;14.20;99.90;;;;;;5050665;28;20108;-84
2022/08/05 20:57:14;;;;;;;4.07;1.30;;;14.20;99.90;;;;;;5051522;28;20048;-83
2022/08/05 20:59:57;;;;;;;3.00;1.40;;;14.10;99.90;;;;;;5053846;28;20083;-83
2022/08/05 21:02:42;;;;;;;2.80;1.10;;;14.10;99.90;;;;;;5068284;28;20047;-84
2022/08/05 21:05:26;;;;;;;3.40;1.25;;;14.10;99.90;;;;;;5061824;28;20163;-83
2022/08/05 21:08:10;;;;;;;3.45;1.40;;;14.10;99.90;;;;;;5042381;28;20491;-84
2022/08/05 21:10:54;;;;;;;5.95;1.20;;;14.00;99.90;;;;;;5054183;28;20091;-87
2022/08/05 21:13:39;;;;;;;2.72;1.13;;;14.00;99.90;;;;;;5068381;28;20047;-83
2022/08/05 21:16:25;;;;;;;5.10;1.40;;;14.00;99.90;;;;;;5052134;28;20064;-82
2022/08/05 21:19:09;;;;;;;6.05;1.17;;;13.90;99.90;;;;;;5056382;28;20040;-83
2022/08/05 21:21:54;;;;;;;4.18;1.40;;;13.90;99.90;;;;;;5057718;28;20039;-83
2022/08/05 21:24:38;;;;;;;3.33;1.20;;;13.80;99.90;;;;;;5075114;28;20153;-83
2022/08/05 21:27:22;;;;;;;2.85;1.13;;;13.80;99.90;;;;;;5058932;28;20040;-83
2022/08/05 21:30:07;;;;;;;11.18;5.72;;;13.80;99.90;;;;;;5063686;28;20063;-83
2022/08/05 21:32:51;;;;;;;15.77;6.72;;;13.80;99.90;;;;;;5073752;28;20043;-83
2022/08/05 21:35:35;;;;;;;11.65;5.18;;;13.70;99.90;;;;;;5074901;28;20516;-83
2022/08/05 21:38:19;;;;;;;9.93;3.38;;;13.70;99.90;;;;;;5048053;28;20324;-83
2022/08/05 21:41:05;;;;;;;10.05;5.15;;;13.70;99.90;;;;;;5073044;28;20042;-83
2022/08/05 21:43:49;;;;;;;8.27;3.55;;;13.60;99.90;;;;;;5073862;28;20066;-83
2022/08/05 21:46:33;;;;;;;4.78;2.35;;;13.60;99.90;;;;;;5059245;28;20509;-83
2022/08/05 21:49:18;;;;;;;6.13;1.80;;;13.50;99.90;;;;;;5061095;28;20040;-83
2022/08/05 21:52:02;;;;;;;3.70;1.50;;;13.50;99.90;;;;;;5047425;28;20044;-88
2022/08/05 21:54:47;;;;;;;4.18;1.60;;;13.50;99.90;;;;;;5073267;28;20085;-83
2022/08/05 21:57:31;;;;;;;5.82;1.77;;;13.40;99.90;;;;;;5054479;28;20079;-83
2022/08/05 22:00:17;;;;;;;4.75;1.50;;;13.40;99.90;;;;;;5057062;28;20094;-83
2022/08/05 22:03:01;;;;;;;5.45;1.50;;;13.40;99.90;;;;;;5074216;28;20075;-83
2022/08/05 22:05:45;;;;;;;4.45;1.70;;;13.40;99.90;;;;;;5042086;28;20508;-82
2022/08/05 22:08:29;;;;;;;5.25;1.70;;;13.40;99.90;;;;;;5069926;28;20125;-83
2022/08/05 22:11:14;;;;;;;2.47;1.20;;;13.30;99.90;;;;;;5058330;28;20064;-83
2022/08/05 22:13:58;;;;;;;4.75;1.55;;;13.30;99.90;;;;;;5073048;28;20043;-83
2022/08/05 22:16:42;;;;;;;5.25;1.60;;;13.30;99.90;;;;;;5069347;28;20040;-83
2022/08/05 22:19:26;;;;;;;6.18;1.50;;;13.20;99.90;;;;;;5054040;28;20629;-83
2022/08/05 22:22:10;;;;;;;9.73;1.50;;;13.20;99.90;;;;;;5058591;28;20050;-83
2022/08/05 22:28:00;;;;;;;5.10;1.25;;;13.20;99.90;;;;;;5072892;28;20048;-83
2022/08/05 22:30:44;;;;;;;4.53;1.50;;;13.10;99.90;;;;;;5058804;28;20140;-83
2022/08/05 22:33:28;;;;;;;6.13;1.90;;;13.10;99.90;;;;;;5072385;28;20039;-83
2022/08/05 22:36:12;;;;;;;4.00;1.48;;;13.10;99.90;;;;;;5069232;28;20083;-84
2022/08/05 22:38:57;;;;;;;4.57;2.08;;;13.10;99.90;;;;;;5052808;28;20043;-83
2022/08/05 22:41:42;;;;;;;4.18;1.58;;;13.10;99.90;;;;;;5037762;28;20530;-83
2022/08/05 22:44:27;;;;;;;7.88;2.13;;;13.10;99.90;;;;;;5072888;28;20063;-84
2022/08/05 22:47:11;;;;;;;4.25;1.40;;;13.10;99.90;;;;;;5060545;28;20043;-84
2022/08/05 22:49:55;;;;;;;5.03;1.95;;;13.10;99.90;;;;;;5073199;28;20085;-83
2022/08/05 22:52:40;;;;;;;9.95;1.80;;;13.10;99.90;;;;;;5060698;28;20520;-83
2022/08/05 22:55:24;;;;;;;6.45;1.60;;;13.20;99.90;;;;;;5044590;28;20058;-82
2022/08/05 22:58:08;;;;;;;6.57;1.70;;;13.20;99.90;;;;;;5073144;28;20075;-83
2022/08/05 23:00:52;;;;;;;4.90;1.40;;;13.20;99.90;;;;;;5073399;28;20047;-83
2022/08/05 23:03:36;;;;;;;3.30;1.40;;;13.20;99.90;;;;;;5072793;28;20039;-83
2022/08/05 23:06:20;;;;;;;7.43;1.60;;;13.20;99.90;;;;;;5072594;28;20043;-83
2022/08/05 23:09:04;;;;;;;8.82;2.00;;;13.10;99.90;;;;;;5066287;28;20114;-83
2022/08/05 23:11:48;;;;;;;4.35;1.63;;;13.20;99.90;;;;;;5068378;28;20059;-83
2022/08/05 23:14:32;;;;;;;8.68;1.70;;;13.10;99.90;;;;;;5072511;28;20075;-83
2022/08/05 23:17:22;;;;;;;4.82;1.27;;;13.10;99.90;;;;;;5072196;28;20040;-84
2022/08/05 23:20:09;;;;;;;4.30;1.60;;;13.10;99.90;;;;;;5072426;28;20078;-83
2022/08/05 23:22:53;;;;;;;5.10;1.80;;;13.10;99.90;;;;;;5041530;28;20036;-83
2022/08/05 23:25:38;;;;;;;6.05;1.92;;;13.10;99.90;;;;;;5040210;28;20043;-83
2022/08/05 23:28:24;;;;;;;4.70;1.80;;;13.00;99.90;;;;;;5071320;28;20043;-83
2022/08/05 23:31:08;;;;;;;7.80;1.63;;;13.00;99.90;;;;;;5072727;28;20048;-83
2022/08/05 23:33:52;;;;;;;3.55;1.73;;;12.90;99.90;;;;;;5071535;28;20090;-83
2022/08/05 23:36:37;;;;;;;3.70;1.80;;;12.90;99.90;;;;;;5071145;28;20039;-83
2022/08/05 23:39:21;;;;;;;6.55;2.08;;;12.80;99.90;;;;;;5057841;28;20086;-83
2022/08/05 23:42:05;;;;;;;4.78;1.83;;;12.80;99.90;;;;;;5072353;28;20444;-83
2022/08/05 23:44:49;;;;;;;7.93;2.25;;;12.70;99.90;;;;;;5057219;28;20121;-82
2022/08/05 23:47:33;;;;;;;6.63;2.22;;;12.70;99.90;;;;;;5060098;28;20472;-83
2022/08/05 23:50:18;;;;;;;9.77;1.90;;;12.60;99.90;;;;;;5058566;28;20047;-88
2022/08/05 23:53:02;;;;;;;6.25;1.98;;;12.60;99.90;;;;;;5072116;28;20079;-83
2022/08/05 23:55:46;;;;;;;4.07;1.83;;;12.60;99.90;;;;;;5072334;28;20039;-83
2022/08/05 23:58:30;;;;;;;4.90;2.00;;;12.50;99.90;;;;;;5071642;28;20053;-82
